createdAt,value
2023-01-29T00:03:45.708Z,16.35
2023-01-29T00:08:47.405Z,16.02
2023-01-29T00:13:50.558Z,15.47
2023-01-29T00:18:52.671Z,16.45
2023-01-29T00:23:55.205Z,17.05
2023-01-29T00:28:57.515Z,21.73
2023-01-29T00:33:59.228Z,18.20
2023-01-29T00:39:02.536Z,18.30
2023-01-29T00:44:24.183Z,16.85
2023-01-29T00:49:26.589Z,16.53
2023-01-29T00:54:28.409Z,21.63
2023-01-29T00:59:30.586Z,19.48
2023-01-29T01:04:34.134Z,19.65
2023-01-29T01:09:55.986Z,17.33
2023-01-29T01:14:58.026Z,18.23
2023-01-29T01:19:59.776Z,19.38
2023-01-29T01:25:01.553Z,16.58
2023-01-29T01:30:04.545Z,18.13
2023-01-29T01:40:19.421Z,17.50
2023-01-29T01:45:27.349Z,20.63
2023-01-29T01:50:42.676Z,16.40
2023-01-29T01:55:55.951Z,15.65
2023-01-29T02:00:58.813Z,17.17
2023-01-29T02:11:21.550Z,17.58
2023-01-29T02:16:23.867Z,17.45
2023-01-29T02:21:45.317Z,16.15
2023-01-29T02:32:14.278Z,20.00
2023-01-29T02:37:16.126Z,18.25
2023-01-29T02:42:44.392Z,20.30
2023-01-29T02:47:58.721Z,18.80
2023-01-29T02:53:07.858Z,19.48
2023-01-29T02:58:33.046Z,17.48
2023-01-29T03:03:41.245Z,19.08
2023-01-29T03:08:50.049Z,20.13
2023-01-29T03:13:51.799Z,19.50
2023-01-29T03:19:12.503Z,19.20
2023-01-29T03:24:36.213Z,20.52
2023-01-29T03:29:58.490Z,18.58
2023-01-29T03:35:13.023Z,18.85
2023-01-29T03:40:16.391Z,21.95
2023-01-29T03:45:43.178Z,17.45
2023-01-29T03:51:00.531Z,18.20
2023-01-29T03:56:11.434Z,20.08
2023-01-29T04:01:39.443Z,21.85
2023-01-29T04:06:45.816Z,19.00
2023-01-29T04:12:10.857Z,21.77
2023-01-29T04:17:20.628Z,18.08
2023-01-29T04:22:39.499Z,21.55
2023-01-29T04:28:12.584Z,18.42
2023-01-29T04:33:33.153Z,18.75
2023-01-29T04:38:53.109Z,19.55
2023-01-29T04:44:00.911Z,22.23
2023-01-29T04:49:14.691Z,18.67
2023-01-29T04:54:32.680Z,17.98
2023-01-29T04:59:41.199Z,20.65
2023-01-29T05:04:46.026Z,18.35
2023-01-29T05:09:49.496Z,20.58
2023-01-29T05:14:53.074Z,19.63
2023-01-29T05:19:56.626Z,16.45
2023-01-29T05:24:58.246Z,19.25
2023-01-29T05:30:00.349Z,19.30
2023-01-29T05:35:02.042Z,18.67
2023-01-29T05:40:03.961Z,17.80
2023-01-29T05:45:06.674Z,16.05
2023-01-29T05:50:09.242Z,16.17
2023-01-29T05:55:11.140Z,16.77
2023-01-29T06:00:13.562Z,16.83
2023-01-29T06:05:15.387Z,16.60
2023-01-29T06:10:18.850Z,16.20
2023-01-29T06:15:21.159Z,16.73
2023-01-29T06:20:23.596Z,14.10
2023-01-29T06:25:25.255Z,16.52
2023-01-29T06:30:28.412Z,14.27
2023-01-29T06:35:30.190Z,14.60
2023-01-29T06:40:31.809Z,17.83
2023-01-29T06:45:33.495Z,14.48
2023-01-29T06:50:35.375Z,18.07
2023-01-29T06:55:37.053Z,14.17
2023-01-29T07:00:39.062Z,14.32
2023-01-29T07:05:41.212Z,15.20
2023-01-29T07:10:43.453Z,16.88
2023-01-29T07:15:45.112Z,13.93
2023-01-29T07:20:46.735Z,19.50
2023-01-29T07:25:49.860Z,16.00
2023-01-29T07:30:56.555Z,15.35
2023-01-29T07:35:58.304Z,18.65
2023-01-29T07:41:01.306Z,23.42
2023-01-29T07:46:04.577Z,16.92
2023-01-29T07:51:06.598Z,15.85
2023-01-29T07:56:08.333Z,14.90
2023-01-29T08:01:10.177Z,18.17
2023-01-29T08:06:11.901Z,13.93
2023-01-29T08:11:13.546Z,14.10
2023-01-29T08:16:15.609Z,13.05
2023-01-29T08:21:17.359Z,13.90
2023-01-29T08:26:19.118Z,12.53
2023-01-29T08:31:21.127Z,12.13
2023-01-29T08:36:23.053Z,11.68
2023-01-29T08:41:24.848Z,12.33
2023-01-29T08:46:26.546Z,12.43
2023-01-29T08:51:28.958Z,11.60
2023-01-29T08:56:30.595Z,12.33
2023-01-29T09:01:32.280Z,12.03
2023-01-29T09:06:34.463Z,11.93
2023-01-29T09:11:36.191Z,11.52
2023-01-29T09:16:38.032Z,14.63
2023-01-29T09:21:39.742Z,15.97
2023-01-29T09:26:41.393Z,14.37
2023-01-29T09:31:43.190Z,13.17
2023-01-29T09:36:44.955Z,14.93
2023-01-29T09:42:01.565Z,12.70
2023-01-29T09:47:07.203Z,14.55
2023-01-29T09:52:18.588Z,16.73
2023-01-29T09:57:31.890Z,13.30
2023-01-29T10:03:11.177Z,12.43
2023-01-29T10:08:24.853Z,14.98
2023-01-29T10:13:26.595Z,13.55
2023-01-29T10:18:31.049Z,11.50
2023-01-29T10:23:42.580Z,11.80
2023-01-29T10:28:48.364Z,12.95
2023-01-29T10:34:02.120Z,9.63
2023-01-29T10:39:04.502Z,12.38
2023-01-29T10:44:30.988Z,10.33
2023-01-29T10:49:54.529Z,9.90
2023-01-29T10:55:15.895Z,9.80
2023-01-29T11:00:39.216Z,12.30
2023-01-29T11:06:08.271Z,10.13
2023-01-29T11:11:18.040Z,10.90
2023-01-29T11:16:19.797Z,9.88
2023-01-29T11:21:23.038Z,10.57
2023-01-29T11:26:24.897Z,10.13
2023-01-29T11:31:37.085Z,13.63
2023-01-29T11:36:39.738Z,9.13
2023-01-29T11:46:51.226Z,10.40
2023-01-29T11:51:55.910Z,10.67
2023-01-29T11:56:58.522Z,9.25
2023-01-29T12:07:23.173Z,10.77
2023-01-29T12:12:38.021Z,11.37
2023-01-29T12:17:43.460Z,10.23
2023-01-29T12:23:22.164Z,11.93
2023-01-29T12:28:31.551Z,11.32
2023-01-29T12:34:01.865Z,11.82
2023-01-29T12:39:03.792Z,12.80
2023-01-29T12:44:14.487Z,10.73
2023-01-29T12:49:22.979Z,11.18
2023-01-29T12:54:50.048Z,13.48
2023-01-29T12:59:58.968Z,15.35
2023-01-29T13:05:23.071Z,13.02
2023-01-29T13:10:32.622Z,12.18
2023-01-29T13:15:40.720Z,11.88
2023-01-29T13:20:43.485Z,12.00
2023-01-29T13:30:47.505Z,11.65
2023-01-29T13:35:58.875Z,13.48
2023-01-29T13:41:04.404Z,12.27
2023-01-29T13:46:10.028Z,14.07
2023-01-29T13:51:20.064Z,15.45
2023-01-29T13:56:44.852Z,13.90
2023-01-29T14:01:46.521Z,12.90
2023-01-29T14:07:28.425Z,15.23
2023-01-29T14:12:37.354Z,17.00
2023-01-29T14:17:40.213Z,13.05
2023-01-29T14:22:43.090Z,12.70
2023-01-29T14:27:49.005Z,13.88
2023-01-29T14:32:51.629Z,12.73
2023-01-29T14:43:02.845Z,14.43
2023-01-29T14:48:11.165Z,15.50
2023-01-29T14:53:24.105Z,16.23
2023-01-29T15:04:14.545Z,14.73
2023-01-29T15:09:42.316Z,16.40
2023-01-29T15:15:15.256Z,14.70
2023-01-29T15:20:31.350Z,16.75
2023-01-29T15:25:37.801Z,17.73
2023-01-29T15:30:39.742Z,15.63
2023-01-29T15:35:42.490Z,17.00
2023-01-29T15:46:06.541Z,18.13
2023-01-29T15:51:11.969Z,15.55
2023-01-29T15:56:18.575Z,15.77
2023-01-29T16:01:20.530Z,15.48
2023-01-29T16:06:23.526Z,16.10
2023-01-29T16:11:25.572Z,15.43
2023-01-29T16:16:28.082Z,16.10
2023-01-29T16:26:45.278Z,16.33
2023-01-29T16:31:50.753Z,16.60
2023-01-29T16:36:54.685Z,21.38
2023-01-29T16:42:29.698Z,18.83
2023-01-29T16:47:41.452Z,15.88
2023-01-29T16:53:00.394Z,16.45
2023-01-29T16:58:13.400Z,17.65
2023-01-29T17:03:17.200Z,17.30
2023-01-29T17:08:34.120Z,16.75
2023-01-29T17:13:42.860Z,16.55
2023-01-29T17:18:44.506Z,17.52
2023-01-29T17:23:46.308Z,19.27
2023-01-29T17:28:52.262Z,17.50
2023-01-29T17:33:53.943Z,16.67
2023-01-29T17:38:55.645Z,16.00
2023-01-29T17:43:57.324Z,18.33
2023-01-29T17:48:59.128Z,18.23
2023-01-29T17:54:00.927Z,18.17
2023-01-29T17:59:02.619Z,17.90
2023-01-29T18:04:05.276Z,19.58
2023-01-29T18:09:07.548Z,19.17
2023-01-29T18:14:13.982Z,18.60
2023-01-29T18:19:21.371Z,20.15
2023-01-29T18:24:23.545Z,22.73
2023-01-29T18:29:29.938Z,20.52
2023-01-29T18:34:31.629Z,20.13
2023-01-29T18:39:51.540Z,19.95
2023-01-29T18:44:53.258Z,21.25
2023-01-29T18:49:55.150Z,20.20
2023-01-29T18:54:58.027Z,21.98
2023-01-29T18:59:59.777Z,26.77
2023-01-29T19:05:01.814Z,21.35
2023-01-29T19:10:06.778Z,24.40
2023-01-29T19:15:10.067Z,24.15
2023-01-29T19:20:12.256Z,25.27
2023-01-29T19:25:14.085Z,23.70
2023-01-29T19:30:16.078Z,24.20
2023-01-29T19:35:18.135Z,25.40
2023-01-29T19:40:20.995Z,24.70
2023-01-29T19:45:37.060Z,26.40
2023-01-29T19:50:52.946Z,26.13
2023-01-29T19:56:03.059Z,26.95
2023-01-29T20:01:07.726Z,28.35
2023-01-29T20:06:09.612Z,29.30
2023-01-29T20:11:13.096Z,30.93
2023-01-29T20:16:14.897Z,37.17
2023-01-29T20:21:20.485Z,40.67
2023-01-29T20:26:22.726Z,40.00
2023-01-29T20:31:24.612Z,37.33
2023-01-29T20:36:26.329Z,36.67
2023-01-29T20:41:28.920Z,39.30
2023-01-29T20:46:30.575Z,49.42
2023-01-29T20:51:32.368Z,51.37
2023-01-29T20:56:41.023Z,48.47
2023-01-29T21:01:48.328Z,44.92
2023-01-29T21:06:50.100Z,40.43
2023-01-29T21:11:51.910Z,37.07
2023-01-29T21:16:53.805Z,33.90
2023-01-29T21:21:57.872Z,33.33
2023-01-29T21:26:59.792Z,29.13
2023-01-29T21:32:01.675Z,28.93
2023-01-29T21:37:03.353Z,31.27
2023-01-29T21:42:23.890Z,30.37
2023-01-29T21:47:25.619Z,29.15
2023-01-29T21:52:27.338Z,29.70
2023-01-29T21:57:28.970Z,33.10
2023-01-29T22:02:32.071Z,30.27
2023-01-29T22:07:34.470Z,29.70
2023-01-29T22:12:36.524Z,29.63
2023-01-29T22:17:41.204Z,30.37
2023-01-29T22:22:43.121Z,30.45
2023-01-29T22:27:44.763Z,29.30
2023-01-29T22:32:46.427Z,33.67
2023-01-29T22:37:48.110Z,29.17
2023-01-29T22:42:50.077Z,28.75
2023-01-29T22:47:51.836Z,30.13
2023-01-29T22:52:54.250Z,30.03
2023-01-29T23:02:57.812Z,31.45
2023-01-29T23:07:59.541Z,30.23
2023-01-29T23:13:01.240Z,29.60
2023-01-29T23:18:03.412Z,31.73
2023-01-29T23:23:05.129Z,34.03
2023-01-29T23:28:06.865Z,32.97
2023-01-29T23:33:11.875Z,30.73
2023-01-29T23:38:13.872Z,31.40
2023-01-29T23:43:15.568Z,34.10
2023-01-29T23:48:17.253Z,32.73
2023-01-29T23:53:18.940Z,32.60
2023-01-29T23:58:20.591Z,37.50
